TVS3211 HEMA-LKPR
Flight info
| Callsign | TVS3211 |
|---|---|
| Flight time | 4h 31m |
| Altitude | 34000 |
| Route | MAK V730 MEMPO L300 LXR P751 KUNKI L321 REXUM M872 SOBAX DCT NOGLI L551 ANTAR UN133 PEREN/N0450F360 UL863 EVIVI L863 OKANA DCT RAVAK DCT BGD DCT TONDO DCT BEGLA DCT NAVTI DCT BODAL DCT VLM |
| Aircraft | A320/M-SDE2E3FGIJ1RWXY/LB1 |
Departure
| Time | 2026-04-19 20:10 |
|---|---|
| Airport | Marsa Alam International Airport (HEMA) |
Arrival
| Time | 2026-04-20 00:41 |
|---|---|
| Airport | Václav Havel Airport Prague (LKPR) |
| Time | Latitude | Longitude | Altitude | Speed | Heading |
|---|---|---|---|---|---|
| 2026-04-19 20:00 | 25.55609 | 34.59011 | 253 ft | 0 kts | 62° |
| 2026-04-19 20:02 | 25.55599 | 34.58991 | 253 ft | 4 kts | 61° |
| 2026-04-19 20:02 | 25.55587 | 34.58965 | 253 ft | 4 kts | 70° |
| 2026-04-19 20:02 | 25.55582 | 34.58937 | 253 ft | 4 kts | 98° |
| 2026-04-19 20:03 | 25.55591 | 34.58914 | 253 ft | 3 kts | 148° |
| 2026-04-19 20:03 | 25.55597 | 34.58910 | 253 ft | 0 kts | 149° |
| 2026-04-19 20:05 | 25.55594 | 34.58911 | 253 ft | 2 kts | 149° |
| 2026-04-19 20:05 | 25.55573 | 34.58925 | 253 ft | 5 kts | 150° |
| 2026-04-19 20:06 | 25.55535 | 34.58950 | 253 ft | 7 kts | 148° |
| 2026-04-19 20:06 | 25.55484 | 34.58981 | 253 ft | 10 kts | 152° |
| 2026-04-19 20:06 | 25.55417 | 34.59024 | 253 ft | 13 kts | 150° |
| 2026-04-19 20:06 | 25.55332 | 34.59078 | 252 ft | 16 kts | 150° |
| 2026-04-19 20:07 | 25.55231 | 34.59132 | 252 ft | 15 kts | 178° |
| 2026-04-19 20:07 | 25.55166 | 34.59056 | 252 ft | 14 kts | 239° |
| 2026-04-19 20:07 | 25.55117 | 34.58966 | 252 ft | 14 kts | 238° |
| 2026-04-19 20:07 | 25.55068 | 34.58877 | 252 ft | 13 kts | 240° |
| 2026-04-19 20:08 | 25.55000 | 34.58832 | 252 ft | 13 kts | 165° |
| 2026-04-19 20:08 | 25.54872 | 34.58910 | 252 ft | 24 kts | 150° |
| 2026-04-19 20:08 | 25.54732 | 34.59001 | 252 ft | 23 kts | 150° |
| 2026-04-19 20:08 | 25.54602 | 34.59098 | 251 ft | 21 kts | 132° |
| 2026-04-19 20:09 | 25.54552 | 34.59141 | 250 ft | 5 kts | 237° |
| 2026-04-19 20:09 | 25.54592 | 34.59088 | 251 ft | 27 kts | 333° |
| 2026-04-19 20:09 | 25.54971 | 34.58847 | 252 ft | 98 kts | 330° |
| 2026-04-19 20:09 | 25.55755 | 34.58344 | 255 ft | 159 kts | 330° |
| 2026-04-19 20:10 | 25.56802 | 34.57691 | 636 ft | 177 kts | 329° |
| 2026-04-19 20:10 | 25.57732 | 34.56807 | 1330 ft | 180 kts | 297° |
| 2026-04-19 20:10 | 25.58025 | 34.55471 | 2055 ft | 179 kts | 269° |
| 2026-04-19 20:10 | 25.57742 | 34.54077 | 2322 ft | 196 kts | 254° |
| 2026-04-19 20:11 | 25.57332 | 34.52549 | 2458 ft | 217 kts | 255° |
| 2026-04-19 20:11 | 25.56901 | 34.50870 | 2649 ft | 238 kts | 255° |
| 2026-04-19 20:11 | 25.56436 | 34.49022 | 2900 ft | 258 kts | 256° |
| 2026-04-19 20:11 | 25.55952 | 34.47086 | 3539 ft | 262 kts | 256° |
| 2026-04-19 20:12 | 25.55465 | 34.45136 | 4259 ft | 262 kts | 256° |
| 2026-04-19 20:12 | 25.54982 | 34.43189 | 5015 ft | 262 kts | 256° |
| 2026-04-19 20:12 | 25.54499 | 34.41231 | 5693 ft | 266 kts | 256° |
| 2026-04-19 20:12 | 25.54010 | 34.39243 | 6363 ft | 269 kts | 256° |
| 2026-04-19 20:13 | 25.53515 | 34.37237 | 7025 ft | 271 kts | 255° |
| 2026-04-19 20:13 | 25.53018 | 34.35229 | 7736 ft | 270 kts | 255° |
| 2026-04-19 20:13 | 25.52521 | 34.33224 | 8455 ft | 270 kts | 254° |
| 2026-04-19 20:13 | 25.52024 | 34.31222 | 9156 ft | 270 kts | 253° |
| 2026-04-19 20:14 | 25.51529 | 34.29223 | 9856 ft | 269 kts | 253° |
| 2026-04-19 20:14 | 25.51033 | 34.27217 | 10323 ft | 277 kts | 253° |
| 2026-04-19 20:14 | 25.50504 | 34.25084 | 10441 ft | 297 kts | 253° |
| 2026-04-19 20:14 | 25.49940 | 34.22808 | 10573 ft | 316 kts | 253° |
| 2026-04-19 20:15 | 25.49548 | 34.21225 | 10653 ft | 328 kts | 253° |
| 2026-04-19 20:15 | 25.48725 | 34.17917 | 11223 ft | 336 kts | 253° |
| 2026-04-19 20:15 | 25.48103 | 34.15415 | 11838 ft | 337 kts | 254° |
| 2026-04-19 20:15 | 25.47485 | 34.12913 | 12461 ft | 337 kts | 254° |
| 2026-04-19 20:16 | 25.46866 | 34.10408 | 13090 ft | 338 kts | 254° |
| 2026-04-19 20:16 | 25.46243 | 34.07901 | 13716 ft | 338 kts | 254° |
| 2026-04-19 20:16 | 25.45620 | 34.05395 | 14265 ft | 338 kts | 254° |
| 2026-04-19 20:16 | 25.44995 | 34.02883 | 14770 ft | 340 kts | 254° |
| 2026-04-19 20:17 | 25.44363 | 34.00354 | 15280 ft | 341 kts | 253° |
| 2026-04-19 20:17 | 25.43732 | 33.97822 | 15821 ft | 342 kts | 253° |
| 2026-04-19 20:17 | 25.43107 | 33.95317 | 16317 ft | 343 kts | 253° |
| 2026-04-19 20:17 | 25.42670 | 33.92716 | 16796 ft | 347 kts | 263° |
| 2026-04-19 20:18 | 25.42758 | 33.90029 | 17280 ft | 354 kts | 274° |
| 2026-04-19 20:18 | 25.43386 | 33.87362 | 17766 ft | 361 kts | 282° |
| 2026-04-19 20:18 | 25.44164 | 33.84712 | 18241 ft | 363 kts | 282° |
| 2026-04-19 20:18 | 25.44940 | 33.82048 | 18648 ft | 365 kts | 281° |
| 2026-04-19 20:19 | 25.45715 | 33.79366 | 19040 ft | 367 kts | 281° |
| 2026-04-19 20:19 | 25.46492 | 33.76671 | 19421 ft | 369 kts | 281° |
| 2026-04-19 20:19 | 25.47274 | 33.73955 | 19795 ft | 371 kts | 281° |
| 2026-04-19 20:19 | 25.48062 | 33.71227 | 20174 ft | 373 kts | 282° |
| 2026-04-19 20:20 | 25.48856 | 33.68481 | 20538 ft | 376 kts | 282° |
| 2026-04-19 20:20 | 25.49654 | 33.65721 | 20926 ft | 377 kts | 282° |
| 2026-04-19 20:20 | 25.50454 | 33.62950 | 21295 ft | 379 kts | 282° |
| 2026-04-19 20:20 | 25.51256 | 33.60163 | 21647 ft | 381 kts | 282° |
| 2026-04-19 20:21 | 25.51789 | 33.58312 | 21870 ft | 382 kts | 282° |
| 2026-04-19 20:21 | 25.52597 | 33.55501 | 22192 ft | 384 kts | 281° |
| 2026-04-19 20:21 | 25.53409 | 33.52673 | 22502 ft | 386 kts | 282° |
| 2026-04-19 20:21 | 25.54224 | 33.49832 | 22828 ft | 388 kts | 282° |
| 2026-04-19 20:22 | 25.55043 | 33.46978 | 23143 ft | 390 kts | 282° |
| 2026-04-19 20:22 | 25.55865 | 33.44110 | 23443 ft | 392 kts | 282° |
| 2026-04-19 20:22 | 25.56690 | 33.41225 | 23702 ft | 394 kts | 281° |
| 2026-04-19 20:22 | 25.57516 | 33.38331 | 23977 ft | 395 kts | 281° |
| 2026-04-19 20:23 | 25.58346 | 33.35429 | 24248 ft | 396 kts | 281° |
| 2026-04-19 20:23 | 25.59177 | 33.32520 | 24512 ft | 397 kts | 281° |
| 2026-04-19 20:23 | 25.60011 | 33.29603 | 24778 ft | 398 kts | 281° |
| 2026-04-19 20:23 | 25.60841 | 33.26679 | 25036 ft | 399 kts | 281° |
| 2026-04-19 20:24 | 25.61671 | 33.23744 | 25282 ft | 400 kts | 281° |
| 2026-04-19 20:24 | 25.62505 | 33.20804 | 25532 ft | 401 kts | 281° |
| 2026-04-19 20:24 | 25.63332 | 33.17894 | 25771 ft | 402 kts | 281° |
| 2026-04-19 20:24 | 25.64182 | 33.14900 | 26027 ft | 402 kts | 281° |
| 2026-04-19 20:25 | 25.65008 | 33.11984 | 26320 ft | 402 kts | 281° |
| 2026-04-19 20:25 | 25.65845 | 33.09031 | 26597 ft | 401 kts | 281° |
| 2026-04-19 20:25 | 25.66687 | 33.06081 | 26830 ft | 402 kts | 281° |
| 2026-04-19 20:25 | 25.67528 | 33.03124 | 27036 ft | 403 kts | 281° |
| 2026-04-19 20:26 | 25.68369 | 33.00160 | 27241 ft | 404 kts | 281° |
| 2026-04-19 20:26 | 25.69210 | 32.97188 | 27435 ft | 404 kts | 281° |
| 2026-04-19 20:26 | 25.70054 | 32.94208 | 27620 ft | 405 kts | 280° |
| 2026-04-19 20:26 | 25.70902 | 32.91222 | 27798 ft | 406 kts | 281° |
| 2026-04-19 20:27 | 25.71752 | 32.88230 | 28003 ft | 407 kts | 281° |
| 2026-04-19 20:27 | 25.72598 | 32.85249 | 28302 ft | 404 kts | 281° |
| 2026-04-19 20:27 | 25.73438 | 32.82285 | 28586 ft | 402 kts | 280° |
| 2026-04-19 20:27 | 25.74288 | 32.79332 | 28832 ft | 403 kts | 283° |
| 2026-04-19 20:28 | 25.75491 | 32.76490 | 29083 ft | 412 kts | 292° |
| 2026-04-19 20:28 | 25.77181 | 32.73872 | 29318 ft | 423 kts | 300° |
| 2026-04-19 20:28 | 25.79066 | 32.71371 | 29542 ft | 422 kts | 300° |
| 2026-04-19 20:28 | 25.80949 | 32.68875 | 29770 ft | 422 kts | 300° |
| 2026-04-19 20:29 | 25.82828 | 32.66381 | 29983 ft | 421 kts | 300° |
| 2026-04-19 20:29 | 25.84703 | 32.63891 | 30202 ft | 420 kts | 300° |
| 2026-04-19 20:29 | 25.86570 | 32.61411 | 30463 ft | 418 kts | 299° |
| 2026-04-19 20:30 | 25.90262 | 32.56489 | 30885 ft | 413 kts | 299° |
| 2026-04-19 20:30 | 25.92090 | 32.54042 | 31121 ft | 411 kts | 299° |
| 2026-04-19 20:30 | 25.93913 | 32.51604 | 31352 ft | 409 kts | 299° |
| 2026-04-19 20:30 | 25.95729 | 32.49180 | 31584 ft | 407 kts | 299° |
| 2026-04-19 20:31 | 25.97539 | 32.46768 | 31812 ft | 406 kts | 298° |
| 2026-04-19 20:31 | 25.99338 | 32.44363 | 32022 ft | 404 kts | 298° |
| 2026-04-19 20:31 | 26.01128 | 32.41965 | 32248 ft | 402 kts | 298° |
| 2026-04-19 20:31 | 26.02909 | 32.39580 | 32481 ft | 400 kts | 298° |
| 2026-04-19 20:32 | 26.04661 | 32.37237 | 32675 ft | 399 kts | 298° |
| 2026-04-19 20:32 | 26.06427 | 32.34869 | 32880 ft | 397 kts | 298° |
| 2026-04-19 20:32 | 26.08182 | 32.32509 | 33112 ft | 395 kts | 298° |
| 2026-04-19 20:32 | 26.09926 | 32.30162 | 33315 ft | 393 kts | 297° |
| 2026-04-19 20:33 | 26.11668 | 32.27822 | 33480 ft | 392 kts | 298° |
| 2026-04-19 20:33 | 26.13402 | 32.25491 | 33746 ft | 390 kts | 297° |
| 2026-04-19 20:33 | 26.15129 | 32.23172 | 33921 ft | 389 kts | 297° |
| 2026-04-19 20:33 | 26.16852 | 32.20857 | 33962 ft | 388 kts | 297° |
| 2026-04-19 20:34 | 26.20287 | 32.16234 | 33970 ft | 387 kts | 297° |
| 2026-04-19 20:34 | 26.23710 | 32.11614 | 33969 ft | 387 kts | 297° |
| 2026-04-19 20:35 | 26.27132 | 32.06990 | 33987 ft | 387 kts | 297° |
| 2026-04-19 20:35 | 26.30562 | 32.02357 | 33974 ft | 388 kts | 297° |
| 2026-04-19 20:36 | 26.33999 | 31.97718 | 33970 ft | 388 kts | 297° |
| 2026-04-19 20:36 | 26.36296 | 31.94610 | 33976 ft | 388 kts | 297° |
| 2026-04-19 20:37 | 26.40859 | 31.88425 | 33973 ft | 388 kts | 297° |
| 2026-04-19 20:37 | 26.44288 | 31.83774 | 33975 ft | 388 kts | 297° |
| 2026-04-19 20:38 | 26.47721 | 31.79122 | 33995 ft | 388 kts | 298° |
| 2026-04-19 20:38 | 26.51149 | 31.74465 | 33987 ft | 388 kts | 297° |
| 2026-04-19 20:39 | 26.54583 | 31.69802 | 34019 ft | 389 kts | 298° |
| 2026-04-19 20:39 | 26.58011 | 31.65136 | 34008 ft | 389 kts | 298° |
| 2026-04-19 20:40 | 26.61415 | 31.60493 | 34008 ft | 389 kts | 298° |
| 2026-04-19 20:40 | 26.64844 | 31.55817 | 34002 ft | 389 kts | 298° |
| 2026-04-19 20:41 | 26.68269 | 31.51138 | 34022 ft | 389 kts | 298° |
| 2026-04-19 20:41 | 26.71696 | 31.46455 | 34017 ft | 389 kts | 298° |
| 2026-04-19 20:42 | 26.75123 | 31.41766 | 34011 ft | 389 kts | 298° |
| 2026-04-19 20:42 | 26.78548 | 31.37074 | 34007 ft | 389 kts | 298° |
| 2026-04-19 20:43 | 26.81974 | 31.32377 | 34016 ft | 389 kts | 298° |
| 2026-04-19 20:43 | 26.85399 | 31.27679 | 34020 ft | 389 kts | 298° |
| 2026-04-19 20:44 | 26.88817 | 31.22980 | 34048 ft | 389 kts | 298° |
| 2026-04-19 20:44 | 26.92230 | 31.18280 | 34046 ft | 389 kts | 298° |
| 2026-04-19 20:45 | 26.95640 | 31.13584 | 34043 ft | 388 kts | 298° |
| 2026-04-19 20:45 | 26.99045 | 31.08886 | 34042 ft | 388 kts | 298° |
| 2026-04-19 20:46 | 27.02452 | 31.04234 | 34033 ft | 393 kts | 302° |
| 2026-04-19 20:46 | 27.04509 | 31.02137 | 34031 ft | 408 kts | 311° |
| 2026-04-19 20:46 | 27.06829 | 31.00271 | 34030 ft | 411 kts | 311° |
| 2026-04-19 20:47 | 27.11507 | 30.96567 | 34031 ft | 412 kts | 312° |
| 2026-04-19 20:47 | 27.16196 | 30.92861 | 34030 ft | 412 kts | 312° |
| 2026-04-19 20:48 | 27.20877 | 30.89143 | 34027 ft | 412 kts | 312° |
| 2026-04-19 20:48 | 27.25551 | 30.85411 | 34064 ft | 412 kts | 312° |
| 2026-04-19 20:49 | 27.30226 | 30.81667 | 34039 ft | 413 kts | 312° |
| 2026-04-19 20:49 | 27.34910 | 30.77921 | 34027 ft | 413 kts | 312° |
| 2026-04-19 20:50 | 27.39601 | 30.74175 | 34015 ft | 414 kts | 312° |
| 2026-04-19 20:50 | 27.44294 | 30.70425 | 34012 ft | 414 kts | 312° |
| 2026-04-19 20:51 | 27.48981 | 30.66662 | 34015 ft | 414 kts | 312° |
| 2026-04-19 20:51 | 27.53675 | 30.62900 | 34012 ft | 414 kts | 312° |
| 2026-04-19 20:52 | 27.58371 | 30.59133 | 34048 ft | 415 kts | 313° |
| 2026-04-19 20:52 | 27.63066 | 30.55352 | 34032 ft | 415 kts | 313° |
| 2026-04-19 20:53 | 27.67732 | 30.51587 | 34023 ft | 415 kts | 313° |
| 2026-04-19 20:53 | 27.72431 | 30.47797 | 34020 ft | 415 kts | 313° |
| 2026-04-19 20:54 | 27.77133 | 30.44007 | 34016 ft | 415 kts | 313° |
| 2026-04-19 20:54 | 27.81833 | 30.40214 | 34017 ft | 415 kts | 313° |
| 2026-04-19 20:55 | 27.86532 | 30.36415 | 34027 ft | 415 kts | 313° |
| 2026-04-19 20:55 | 27.91223 | 30.32612 | 34052 ft | 415 kts | 313° |
| 2026-04-19 20:56 | 27.95916 | 30.28807 | 34032 ft | 415 kts | 313° |
| 2026-04-19 20:56 | 28.00610 | 30.24999 | 34020 ft | 415 kts | 313° |
| 2026-04-19 20:57 | 28.05306 | 30.21186 | 34015 ft | 415 kts | 313° |
| 2026-04-19 20:57 | 28.10005 | 30.17375 | 34020 ft | 416 kts | 313° |
| 2026-04-19 20:58 | 28.14700 | 30.13548 | 34020 ft | 416 kts | 313° |
| 2026-04-19 20:58 | 28.19395 | 30.09717 | 34022 ft | 416 kts | 313° |
| 2026-04-19 20:59 | 28.24093 | 30.05886 | 34058 ft | 416 kts | 314° |
| 2026-04-19 20:59 | 28.28784 | 30.02053 | 34052 ft | 415 kts | 314° |
| 2026-04-19 21:00 | 28.33473 | 29.98218 | 34050 ft | 415 kts | 314° |
| 2026-04-19 21:00 | 28.38131 | 29.94411 | 34042 ft | 415 kts | 314° |
| 2026-04-19 21:01 | 28.42817 | 29.90574 | 34040 ft | 415 kts | 314° |
| 2026-04-19 21:01 | 28.47501 | 29.86736 | 34037 ft | 415 kts | 314° |
| 2026-04-19 21:02 | 28.52174 | 29.82891 | 34035 ft | 415 kts | 314° |
| 2026-04-19 21:02 | 28.56841 | 29.79054 | 34040 ft | 412 kts | 314° |
| 2026-04-19 21:03 | 28.61488 | 29.75230 | 34037 ft | 412 kts | 314° |
| 2026-04-19 21:03 | 28.66134 | 29.71400 | 34037 ft | 412 kts | 314° |
| 2026-04-19 21:04 | 28.70774 | 29.67564 | 34035 ft | 412 kts | 314° |
| 2026-04-19 21:04 | 28.75418 | 29.63732 | 34035 ft | 412 kts | 314° |
| 2026-04-19 21:05 | 28.80064 | 29.59900 | 34036 ft | 412 kts | 314° |
| 2026-04-19 21:05 | 28.84702 | 29.56048 | 34041 ft | 412 kts | 314° |
| 2026-04-19 21:06 | 28.89338 | 29.52187 | 34068 ft | 413 kts | 314° |
| 2026-04-19 21:06 | 28.93951 | 29.48357 | 34058 ft | 413 kts | 314° |
| 2026-04-19 21:07 | 28.98595 | 29.44501 | 34049 ft | 413 kts | 314° |
| 2026-04-19 21:07 | 29.03237 | 29.40639 | 34044 ft | 413 kts | 314° |
| 2026-04-19 21:08 | 29.07880 | 29.36780 | 34040 ft | 413 kts | 314° |
| 2026-04-19 21:08 | 29.13100 | 29.33726 | 34033 ft | 437 kts | 334° |
| 2026-04-19 21:09 | 29.16135 | 29.33047 | 34065 ft | 453 kts | 345° |
| 2026-04-19 21:09 | 29.19330 | 29.32960 | 34056 ft | 461 kts | 349° |
| 2026-04-19 21:09 | 29.25757 | 29.32946 | 34033 ft | 462 kts | 349° |
| 2026-04-19 21:10 | 29.32188 | 29.32907 | 34033 ft | 462 kts | 349° |
| 2026-04-19 21:10 | 29.38625 | 29.32854 | 34028 ft | 463 kts | 349° |
| 2026-04-19 21:11 | 29.45070 | 29.32795 | 34063 ft | 463 kts | 349° |
| 2026-04-19 21:11 | 29.51513 | 29.32740 | 34060 ft | 463 kts | 349° |
| 2026-04-19 21:12 | 29.57954 | 29.32694 | 34056 ft | 463 kts | 350° |
| 2026-04-19 21:12 | 29.64394 | 29.32658 | 34050 ft | 463 kts | 350° |
| 2026-04-19 21:13 | 29.70829 | 29.32611 | 34082 ft | 462 kts | 351° |
| 2026-04-19 21:13 | 29.76167 | 29.32567 | 34073 ft | 461 kts | 351° |
| 2026-04-19 21:14 | 29.82580 | 29.32516 | 34064 ft | 461 kts | 351° |
| 2026-04-19 21:14 | 29.88989 | 29.32469 | 34058 ft | 460 kts | 351° |
| 2026-04-19 21:15 | 29.95393 | 29.32420 | 34052 ft | 460 kts | 351° |
| 2026-04-19 21:15 | 30.01793 | 29.32371 | 34050 ft | 460 kts | 351° |
| 2026-04-19 21:16 | 30.08194 | 29.32327 | 34046 ft | 460 kts | 351° |
| 2026-04-19 21:16 | 30.14592 | 29.32275 | 34045 ft | 460 kts | 351° |
| 2026-04-19 21:17 | 30.20986 | 29.32225 | 34071 ft | 459 kts | 352° |
| 2026-04-19 21:17 | 30.26862 | 29.32190 | 34066 ft | 458 kts | 351° |
| 2026-04-19 21:18 | 30.33236 | 29.32139 | 34059 ft | 458 kts | 351° |
| 2026-04-19 21:18 | 30.39606 | 29.32077 | 34055 ft | 458 kts | 351° |
| 2026-04-19 21:19 | 30.45971 | 29.32021 | 34070 ft | 457 kts | 352° |
| 2026-04-19 21:19 | 30.49146 | 29.31994 | 34193 ft | 456 kts | 352° |
| 2026-04-19 21:19 | 30.52310 | 29.31968 | 34224 ft | 453 kts | 352° |
| 2026-04-19 21:20 | 30.55455 | 29.31944 | 34018 ft | 451 kts | 352° |
| 2026-04-19 21:20 | 30.58601 | 29.31915 | 34038 ft | 453 kts | 352° |
| 2026-04-19 21:20 | 30.64912 | 29.31854 | 34042 ft | 454 kts | 352° |
| 2026-04-19 21:21 | 30.71215 | 29.31802 | 34035 ft | 452 kts | 352° |
| 2026-04-19 21:21 | 30.77500 | 29.31742 | 34037 ft | 452 kts | 352° |
| 2026-04-19 21:22 | 30.83785 | 29.31685 | 34037 ft | 452 kts | 352° |
| 2026-04-19 21:22 | 30.90024 | 29.31635 | 34039 ft | 451 kts | 352° |
| 2026-04-19 21:23 | 30.96304 | 29.31581 | 34061 ft | 451 kts | 352° |
| 2026-04-19 21:23 | 31.02583 | 29.31522 | 34054 ft | 451 kts | 352° |
| 2026-04-19 21:24 | 31.08864 | 29.31462 | 34048 ft | 451 kts | 352° |
| 2026-04-19 21:24 | 31.15148 | 29.31407 | 34047 ft | 451 kts | 352° |
| 2026-04-19 21:25 | 31.21430 | 29.31351 | 34063 ft | 451 kts | 352° |
| 2026-04-19 21:25 | 31.27710 | 29.31290 | 34057 ft | 451 kts | 352° |
| 2026-04-19 21:26 | 31.33988 | 29.31234 | 34053 ft | 451 kts | 352° |
| 2026-04-19 21:26 | 31.40268 | 29.31178 | 34087 ft | 451 kts | 353° |
| 2026-04-19 21:27 | 31.46536 | 29.31117 | 34070 ft | 450 kts | 352° |
| 2026-04-19 21:27 | 31.52796 | 29.31051 | 34062 ft | 449 kts | 352° |
| 2026-04-19 21:28 | 31.59045 | 29.30983 | 34059 ft | 449 kts | 352° |
| 2026-04-19 21:28 | 31.65291 | 29.30918 | 34072 ft | 449 kts | 352° |
| 2026-04-19 21:29 | 31.71527 | 29.30851 | 34063 ft | 448 kts | 352° |
| 2026-04-19 21:29 | 31.77753 | 29.30782 | 34056 ft | 447 kts | 352° |
| 2026-04-19 21:30 | 31.83972 | 29.30721 | 34053 ft | 447 kts | 352° |
| 2026-04-19 21:30 | 31.90145 | 29.30652 | 34079 ft | 446 kts | 353° |
| 2026-04-19 21:31 | 31.96355 | 29.30580 | 34061 ft | 446 kts | 353° |
| 2026-04-19 21:31 | 32.02562 | 29.30518 | 34055 ft | 446 kts | 353° |
| 2026-04-19 21:32 | 32.08761 | 29.30462 | 34053 ft | 445 kts | 353° |
| 2026-04-19 21:32 | 32.14960 | 29.30395 | 34057 ft | 445 kts | 353° |
| 2026-04-19 21:33 | 32.21044 | 29.29706 | 34053 ft | 433 kts | 339° |
| 2026-04-19 21:33 | 32.26503 | 29.27051 | 34043 ft | 421 kts | 326° |
| 2026-04-19 21:34 | 32.31644 | 29.23727 | 34041 ft | 421 kts | 326° |
| 2026-04-19 21:34 | 32.36794 | 29.20420 | 34038 ft | 421 kts | 326° |
| 2026-04-19 21:35 | 32.41943 | 29.17104 | 34037 ft | 421 kts | 326° |
| 2026-04-19 21:35 | 32.47087 | 29.13789 | 34029 ft | 421 kts | 326° |
| 2026-04-19 21:36 | 32.52232 | 29.10467 | 34032 ft | 421 kts | 326° |
| 2026-04-19 21:36 | 32.57343 | 29.07167 | 34032 ft | 421 kts | 326° |
| 2026-04-19 21:37 | 32.62488 | 29.03841 | 34031 ft | 421 kts | 326° |
| 2026-04-19 21:37 | 32.67630 | 29.00513 | 34053 ft | 421 kts | 326° |
| 2026-04-19 21:38 | 32.72777 | 28.97185 | 34042 ft | 421 kts | 326° |
| 2026-04-19 21:38 | 32.77922 | 28.93857 | 34046 ft | 421 kts | 327° |
| 2026-04-19 21:39 | 32.83058 | 28.90513 | 34036 ft | 421 kts | 326° |
| 2026-04-19 21:39 | 32.88182 | 28.87162 | 34035 ft | 420 kts | 326° |
| 2026-04-19 21:40 | 32.95876 | 28.82143 | 34123 ft | 421 kts | 327° |
| 2026-04-19 21:40 | 32.98441 | 28.80476 | 34292 ft | 420 kts | 327° |
| 2026-04-19 21:41 | 33.01004 | 28.78807 | 34442 ft | 420 kts | 327° |
| 2026-04-19 21:41 | 33.03565 | 28.77139 | 34581 ft | 420 kts | 327° |
| 2026-04-19 21:41 | 33.06126 | 28.75466 | 34712 ft | 420 kts | 327° |
| 2026-04-19 21:41 | 33.08687 | 28.73788 | 34837 ft | 420 kts | 327° |
| 2026-04-19 21:42 | 33.11247 | 28.72109 | 34958 ft | 420 kts | 327° |
| 2026-04-19 21:42 | 33.13809 | 28.70431 | 35073 ft | 420 kts | 327° |
| 2026-04-19 21:42 | 33.16374 | 28.68753 | 35191 ft | 420 kts | 327° |
| 2026-04-19 21:42 | 33.18937 | 28.67074 | 35310 ft | 420 kts | 326° |
| 2026-04-19 21:43 | 33.21500 | 28.65394 | 35434 ft | 420 kts | 327° |
| 2026-04-19 21:43 | 33.24058 | 28.63719 | 35584 ft | 419 kts | 327° |
| 2026-04-19 21:43 | 33.26612 | 28.62042 | 35713 ft | 418 kts | 327° |
| 2026-04-19 21:43 | 33.29162 | 28.60365 | 35834 ft | 418 kts | 327° |
| 2026-04-19 21:44 | 33.31702 | 28.58689 | 35980 ft | 417 kts | 327° |
| 2026-04-19 21:44 | 33.36789 | 28.55330 | 36007 ft | 418 kts | 327° |
| 2026-04-19 21:45 | 33.41882 | 28.51961 | 36017 ft | 418 kts | 327° |
| 2026-04-19 21:45 | 33.46977 | 28.48590 | 36007 ft | 418 kts | 327° |
| 2026-04-19 21:46 | 33.52072 | 28.45217 | 36029 ft | 418 kts | 327° |
| 2026-04-19 21:46 | 33.57162 | 28.41847 | 36017 ft | 418 kts | 327° |
| 2026-04-19 21:47 | 33.62256 | 28.38483 | 36013 ft | 418 kts | 327° |
| 2026-04-19 21:47 | 33.67345 | 28.35100 | 36016 ft | 418 kts | 327° |
| 2026-04-19 21:48 | 33.72427 | 28.31709 | 36019 ft | 418 kts | 327° |
| 2026-04-19 21:48 | 33.77510 | 28.28323 | 36024 ft | 418 kts | 327° |
| 2026-04-19 21:49 | 33.82593 | 28.24935 | 36042 ft | 417 kts | 327° |
| 2026-04-19 21:49 | 33.87621 | 28.21542 | 36035 ft | 417 kts | 327° |
| 2026-04-19 21:50 | 33.92675 | 28.18116 | 36032 ft | 417 kts | 327° |
| 2026-04-19 21:50 | 33.97731 | 28.14692 | 36030 ft | 417 kts | 327° |
| 2026-04-19 21:51 | 34.02782 | 28.11266 | 36023 ft | 416 kts | 327° |
| 2026-04-19 21:51 | 34.07832 | 28.07840 | 36044 ft | 416 kts | 327° |
| 2026-04-19 21:52 | 34.12874 | 28.04416 | 36036 ft | 416 kts | 327° |
| 2026-04-19 21:52 | 34.17910 | 28.00992 | 36029 ft | 415 kts | 327° |
| 2026-04-19 21:53 | 34.22937 | 27.97566 | 36024 ft | 415 kts | 327° |
| 2026-04-19 21:53 | 34.27955 | 27.94137 | 36021 ft | 414 kts | 327° |
| 2026-04-19 21:54 | 34.32976 | 27.90720 | 36018 ft | 414 kts | 327° |
| 2026-04-19 21:54 | 34.37997 | 27.87306 | 36032 ft | 414 kts | 327° |
| 2026-04-19 21:55 | 34.43007 | 27.83880 | 36018 ft | 414 kts | 327° |
| 2026-04-19 21:55 | 34.48014 | 27.80445 | 36014 ft | 414 kts | 327° |
| 2026-04-19 21:56 | 34.53025 | 27.76997 | 36012 ft | 414 kts | 327° |
| 2026-04-19 21:56 | 34.58040 | 27.73545 | 36010 ft | 415 kts | 327° |
| 2026-04-19 21:57 | 34.63055 | 27.70087 | 36043 ft | 414 kts | 327° |
| 2026-04-19 21:57 | 34.68056 | 27.66624 | 36037 ft | 413 kts | 327° |
| 2026-04-19 21:58 | 34.73041 | 27.63157 | 36029 ft | 413 kts | 327° |
| 2026-04-19 21:58 | 34.78021 | 27.59694 | 36024 ft | 412 kts | 327° |
| 2026-04-19 21:59 | 34.82995 | 27.56235 | 36025 ft | 412 kts | 327° |
| 2026-04-19 21:59 | 34.87938 | 27.52804 | 36022 ft | 412 kts | 327° |
| 2026-04-19 22:00 | 34.92910 | 27.49339 | 36043 ft | 412 kts | 327° |
| 2026-04-19 22:00 | 34.97882 | 27.45862 | 36027 ft | 412 kts | 327° |
| 2026-04-19 22:01 | 35.02860 | 27.42386 | 36018 ft | 412 kts | 327° |
| 2026-04-19 22:01 | 35.07830 | 27.38905 | 36019 ft | 412 kts | 327° |
| 2026-04-19 22:02 | 35.12797 | 27.35420 | 36004 ft | 412 kts | 327° |
| 2026-04-19 22:02 | 35.16924 | 27.32523 | 36014 ft | 412 kts | 327° |
| 2026-04-19 22:03 | 35.21887 | 27.29026 | 36011 ft | 411 kts | 327° |
| 2026-04-19 22:03 | 35.26845 | 27.25526 | 36005 ft | 411 kts | 327° |
| 2026-04-19 22:04 | 35.31807 | 27.22034 | 36004 ft | 411 kts | 327° |
| 2026-04-19 22:04 | 35.36764 | 27.18536 | 36013 ft | 411 kts | 327° |
| 2026-04-19 22:05 | 35.41721 | 27.15042 | 36013 ft | 411 kts | 328° |
| 2026-04-19 22:05 | 35.46896 | 27.12042 | 36026 ft | 411 kts | 332° |
| 2026-04-19 22:06 | 35.52094 | 27.09132 | 36024 ft | 410 kts | 332° |
| 2026-04-19 22:06 | 35.57283 | 27.06227 | 36022 ft | 410 kts | 332° |
| 2026-04-19 22:07 | 35.62459 | 27.03314 | 36015 ft | 409 kts | 332° |
| 2026-04-19 22:07 | 35.67626 | 27.00384 | 36014 ft | 409 kts | 332° |
| 2026-04-19 22:08 | 35.72789 | 26.97460 | 36035 ft | 409 kts | 332° |
| 2026-04-19 22:08 | 35.77957 | 26.94540 | 36034 ft | 409 kts | 332° |
| 2026-04-19 22:09 | 35.83122 | 26.91613 | 36030 ft | 409 kts | 332° |
| 2026-04-19 22:09 | 35.88284 | 26.88674 | 36030 ft | 409 kts | 332° |
| 2026-04-19 22:10 | 35.93439 | 26.85721 | 36021 ft | 409 kts | 332° |
| 2026-04-19 22:10 | 35.98597 | 26.82765 | 36045 ft | 409 kts | 332° |
| 2026-04-19 22:11 | 36.03726 | 26.79821 | 36040 ft | 409 kts | 332° |
| 2026-04-19 22:11 | 36.08890 | 26.76853 | 36041 ft | 409 kts | 332° |
| 2026-04-19 22:12 | 36.14056 | 26.73876 | 36043 ft | 410 kts | 332° |
| 2026-04-19 22:12 | 36.19217 | 26.70884 | 36044 ft | 410 kts | 332° |
| 2026-04-19 22:13 | 36.24384 | 26.67900 | 36058 ft | 410 kts | 333° |
| 2026-04-19 22:13 | 36.29560 | 26.64931 | 36057 ft | 410 kts | 333° |
| 2026-04-19 22:14 | 36.34733 | 26.61949 | 36062 ft | 410 kts | 333° |
| 2026-04-19 22:14 | 36.39902 | 26.58951 | 36061 ft | 410 kts | 332° |
| 2026-04-19 22:15 | 36.45068 | 26.55944 | 36047 ft | 410 kts | 332° |
| 2026-04-19 22:15 | 36.50238 | 26.52928 | 36072 ft | 411 kts | 333° |
| 2026-04-19 22:16 | 36.55412 | 26.49914 | 36075 ft | 411 kts | 333° |
| 2026-04-19 22:16 | 36.60585 | 26.46896 | 36076 ft | 411 kts | 333° |
| 2026-04-19 22:17 | 36.65758 | 26.43869 | 36072 ft | 411 kts | 332° |
| 2026-04-19 22:17 | 36.70929 | 26.40834 | 36071 ft | 411 kts | 332° |
| 2026-04-19 22:18 | 36.76066 | 26.37822 | 36091 ft | 411 kts | 333° |
| 2026-04-19 22:18 | 36.81233 | 26.34789 | 36085 ft | 410 kts | 333° |
| 2026-04-19 22:19 | 36.86394 | 26.31748 | 36078 ft | 410 kts | 333° |
| 2026-04-19 22:19 | 36.91553 | 26.28706 | 36080 ft | 410 kts | 333° |
| 2026-04-19 22:20 | 36.96708 | 26.25647 | 36066 ft | 410 kts | 332° |
| 2026-04-19 22:20 | 37.01851 | 26.22560 | 36078 ft | 410 kts | 332° |
| 2026-04-19 22:21 | 37.06987 | 26.19425 | 36073 ft | 411 kts | 332° |
| 2026-04-19 22:21 | 37.12122 | 26.16282 | 36076 ft | 411 kts | 332° |
| 2026-04-19 22:22 | 37.17266 | 26.13140 | 36080 ft | 411 kts | 332° |
| 2026-04-19 22:22 | 37.22408 | 26.09989 | 36084 ft | 411 kts | 332° |
| 2026-04-19 22:23 | 37.27550 | 26.06832 | 36096 ft | 411 kts | 332° |
| 2026-04-19 22:23 | 37.32695 | 26.03676 | 36093 ft | 412 kts | 332° |
| 2026-04-19 22:24 | 37.37838 | 26.00513 | 36096 ft | 412 kts | 332° |
| 2026-04-19 22:24 | 37.42980 | 25.97340 | 36098 ft | 412 kts | 332° |
| 2026-04-19 22:25 | 37.48125 | 25.94172 | 36080 ft | 412 kts | 332° |
| 2026-04-19 22:25 | 37.53267 | 25.90992 | 36095 ft | 412 kts | 332° |
| 2026-04-19 22:26 | 37.58413 | 25.87802 | 36094 ft | 412 kts | 332° |
| 2026-04-19 22:26 | 37.63559 | 25.84608 | 36096 ft | 412 kts | 332° |
| 2026-04-19 22:27 | 37.68706 | 25.81413 | 36097 ft | 412 kts | 332° |
| 2026-04-19 22:27 | 37.73853 | 25.78216 | 36097 ft | 412 kts | 332° |
| 2026-04-19 22:28 | 37.78965 | 25.75025 | 36097 ft | 412 kts | 332° |
| 2026-04-19 22:28 | 37.84107 | 25.71804 | 36101 ft | 413 kts | 332° |
| 2026-04-19 22:29 | 37.89251 | 25.68582 | 36104 ft | 413 kts | 332° |
| 2026-04-19 22:29 | 37.94400 | 25.65364 | 36104 ft | 413 kts | 332° |
| 2026-04-19 22:30 | 37.99547 | 25.62144 | 36095 ft | 413 kts | 332° |
| 2026-04-19 22:30 | 38.04690 | 25.58912 | 36112 ft | 413 kts | 332° |
| 2026-04-19 22:31 | 38.09835 | 25.55678 | 36107 ft | 413 kts | 332° |
| 2026-04-19 22:31 | 38.14976 | 25.52429 | 36106 ft | 413 kts | 332° |
| 2026-04-19 22:32 | 38.20115 | 25.49178 | 36108 ft | 413 kts | 332° |
| 2026-04-19 22:32 | 38.25256 | 25.45926 | 36108 ft | 413 kts | 332° |
| 2026-04-19 22:33 | 38.30396 | 25.42673 | 36117 ft | 413 kts | 332° |
| 2026-04-19 22:33 | 38.35535 | 25.39416 | 36113 ft | 413 kts | 332° |
| 2026-04-19 22:34 | 38.40673 | 25.36153 | 36116 ft | 412 kts | 332° |
| 2026-04-19 22:34 | 38.45806 | 25.32882 | 36108 ft | 412 kts | 332° |
| 2026-04-19 22:35 | 38.50905 | 25.29635 | 36111 ft | 412 kts | 332° |
| 2026-04-19 22:35 | 38.56042 | 25.26358 | 36110 ft | 413 kts | 332° |
| 2026-04-19 22:36 | 38.61178 | 25.23075 | 36108 ft | 413 kts | 332° |
| 2026-04-19 22:36 | 38.66314 | 25.19784 | 36107 ft | 413 kts | 332° |
| 2026-04-19 22:37 | 38.71449 | 25.16491 | 36106 ft | 413 kts | 332° |
| 2026-04-19 22:37 | 38.76587 | 25.13195 | 36116 ft | 413 kts | 332° |
| 2026-04-19 22:38 | 38.81727 | 25.09889 | 36111 ft | 414 kts | 332° |
| 2026-04-19 22:38 | 38.86872 | 25.06570 | 36106 ft | 414 kts | 332° |
| 2026-04-19 22:39 | 38.92019 | 25.03244 | 36103 ft | 414 kts | 331° |
| 2026-04-19 22:39 | 38.97172 | 24.99913 | 36100 ft | 415 kts | 331° |
| 2026-04-19 22:40 | 39.02332 | 24.96569 | 36098 ft | 416 kts | 331° |
| 2026-04-19 22:40 | 39.07500 | 24.93206 | 36086 ft | 417 kts | 331° |
| 2026-04-19 22:41 | 39.12688 | 24.89866 | 36093 ft | 417 kts | 332° |
| 2026-04-19 22:41 | 39.17931 | 24.86626 | 36094 ft | 418 kts | 332° |
| 2026-04-19 22:42 | 39.23188 | 24.83406 | 36098 ft | 419 kts | 332° |
| 2026-04-19 22:42 | 39.28445 | 24.80161 | 36107 ft | 419 kts | 332° |
| 2026-04-19 22:43 | 39.33700 | 24.76890 | 36098 ft | 419 kts | 332° |
| 2026-04-19 22:43 | 39.38953 | 24.73613 | 36105 ft | 419 kts | 332° |
| 2026-04-19 22:44 | 39.44170 | 24.70353 | 36106 ft | 419 kts | 332° |
| 2026-04-19 22:44 | 39.49419 | 24.67068 | 36112 ft | 419 kts | 332° |
| 2026-04-19 22:45 | 39.54671 | 24.63779 | 36110 ft | 420 kts | 332° |
| 2026-04-19 22:45 | 39.59929 | 24.60475 | 36107 ft | 420 kts | 332° |
| 2026-04-19 22:46 | 39.65187 | 24.57170 | 36105 ft | 420 kts | 332° |
| 2026-04-19 22:46 | 39.70447 | 24.53863 | 36104 ft | 420 kts | 332° |
| 2026-04-19 22:47 | 39.75704 | 24.50546 | 36109 ft | 420 kts | 332° |
| 2026-04-19 22:47 | 39.80958 | 24.47225 | 36103 ft | 420 kts | 332° |
| 2026-04-19 22:48 | 39.86213 | 24.43903 | 36101 ft | 420 kts | 332° |
| 2026-04-19 22:48 | 39.91467 | 24.40573 | 36095 ft | 420 kts | 332° |
| 2026-04-19 22:49 | 39.96722 | 24.37237 | 36097 ft | 420 kts | 332° |
| 2026-04-19 22:49 | 40.01981 | 24.33888 | 36087 ft | 421 kts | 332° |
| 2026-04-19 22:50 | 40.07255 | 24.30527 | 36083 ft | 422 kts | 332° |
| 2026-04-19 22:50 | 40.12531 | 24.27160 | 36084 ft | 422 kts | 332° |
| 2026-04-19 22:51 | 40.17811 | 24.23783 | 36083 ft | 423 kts | 332° |
| 2026-04-19 22:51 | 40.24846 | 24.19275 | 36087 ft | 423 kts | 332° |
| 2026-04-19 22:52 | 40.30132 | 24.15886 | 36089 ft | 423 kts | 332° |
| 2026-04-19 22:52 | 40.35417 | 24.12486 | 36091 ft | 423 kts | 331° |
| 2026-04-19 22:53 | 40.40700 | 24.09080 | 36091 ft | 423 kts | 331° |
| 2026-04-19 22:53 | 40.45986 | 24.05671 | 36088 ft | 424 kts | 331° |
| 2026-04-19 22:54 | 40.51278 | 24.02247 | 36080 ft | 424 kts | 331° |
| 2026-04-19 22:54 | 40.56579 | 23.98808 | 36079 ft | 425 kts | 331° |
| 2026-04-19 22:55 | 40.61892 | 23.95367 | 36083 ft | 426 kts | 332° |
| 2026-04-19 22:55 | 40.67241 | 23.91998 | 36100 ft | 426 kts | 332° |
| 2026-04-19 22:56 | 40.72602 | 23.88659 | 36094 ft | 426 kts | 332° |
| 2026-04-19 22:56 | 40.77925 | 23.85328 | 36091 ft | 426 kts | 332° |
| 2026-04-19 22:57 | 40.83282 | 23.81949 | 36093 ft | 427 kts | 332° |
| 2026-04-19 22:57 | 40.88641 | 23.78559 | 36094 ft | 427 kts | 332° |
| 2026-04-19 22:58 | 40.94000 | 23.75162 | 36107 ft | 427 kts | 332° |
| 2026-04-19 22:58 | 40.99366 | 23.71761 | 36092 ft | 428 kts | 332° |
| 2026-04-19 22:59 | 41.04732 | 23.68354 | 36091 ft | 428 kts | 332° |
| 2026-04-19 22:59 | 41.10101 | 23.64934 | 36090 ft | 428 kts | 332° |
| 2026-04-19 23:00 | 41.15472 | 23.61513 | 36100 ft | 428 kts | 332° |
| 2026-04-19 23:00 | 41.20837 | 23.58088 | 36099 ft | 428 kts | 332° |
| 2026-04-19 23:01 | 41.26199 | 23.54644 | 36098 ft | 428 kts | 332° |
| 2026-04-19 23:01 | 41.31570 | 23.51199 | 36099 ft | 429 kts | 332° |
| 2026-04-19 23:02 | 41.36940 | 23.47740 | 36108 ft | 429 kts | 332° |
| 2026-04-19 23:02 | 41.42308 | 23.44266 | 36103 ft | 429 kts | 331° |
| 2026-04-19 23:03 | 41.47672 | 23.40778 | 36095 ft | 429 kts | 331° |
| 2026-04-19 23:03 | 41.53035 | 23.37277 | 36089 ft | 429 kts | 331° |
| 2026-04-19 23:04 | 41.58406 | 23.33767 | 36087 ft | 430 kts | 331° |
| 2026-04-19 23:04 | 41.63774 | 23.30254 | 36089 ft | 430 kts | 331° |
| 2026-04-19 23:05 | 41.69145 | 23.26730 | 36087 ft | 430 kts | 331° |
| 2026-04-19 23:05 | 41.74478 | 23.23218 | 36085 ft | 430 kts | 331° |
| 2026-04-19 23:06 | 41.79850 | 23.19682 | 36088 ft | 430 kts | 331° |
| 2026-04-19 23:06 | 41.85226 | 23.16141 | 36099 ft | 430 kts | 331° |
| 2026-04-19 23:07 | 41.90598 | 23.12592 | 36094 ft | 430 kts | 331° |
| 2026-04-19 23:07 | 41.95962 | 23.09033 | 36086 ft | 430 kts | 331° |
| 2026-04-19 23:08 | 42.01323 | 23.05473 | 36078 ft | 430 kts | 331° |
| 2026-04-19 23:08 | 42.06681 | 23.01907 | 36079 ft | 430 kts | 331° |
| 2026-04-19 23:09 | 42.12050 | 22.98340 | 36068 ft | 430 kts | 331° |
| 2026-04-19 23:09 | 42.17421 | 22.94761 | 36064 ft | 431 kts | 331° |
| 2026-04-19 23:10 | 42.22799 | 22.91167 | 36061 ft | 431 kts | 331° |
| 2026-04-19 23:10 | 42.28176 | 22.87565 | 36075 ft | 431 kts | 330° |
| 2026-04-19 23:11 | 42.33552 | 22.83957 | 36066 ft | 431 kts | 330° |
| 2026-04-19 23:11 | 42.38931 | 22.80348 | 36067 ft | 432 kts | 330° |
| 2026-04-19 23:12 | 42.44304 | 22.76723 | 36070 ft | 431 kts | 330° |
| 2026-04-19 23:12 | 42.49680 | 22.73102 | 36064 ft | 431 kts | 330° |
| 2026-04-19 23:13 | 42.55052 | 22.69477 | 36062 ft | 431 kts | 330° |
| 2026-04-19 23:13 | 42.60418 | 22.65837 | 36062 ft | 431 kts | 330° |
| 2026-04-19 23:14 | 42.65784 | 22.62195 | 36065 ft | 431 kts | 330° |
| 2026-04-19 23:14 | 42.71147 | 22.58552 | 36060 ft | 431 kts | 330° |
| 2026-04-19 23:15 | 42.76504 | 22.54898 | 36057 ft | 431 kts | 330° |
| 2026-04-19 23:15 | 42.81855 | 22.51240 | 36039 ft | 430 kts | 330° |
| 2026-04-19 23:16 | 42.86932 | 22.47017 | 36032 ft | 426 kts | 321° |
| 2026-04-19 23:16 | 42.91682 | 22.42167 | 36020 ft | 427 kts | 321° |
| 2026-04-19 23:17 | 42.96411 | 22.37356 | 36027 ft | 427 kts | 321° |
| 2026-04-19 23:17 | 43.01178 | 22.32507 | 36018 ft | 427 kts | 321° |
| 2026-04-19 23:18 | 43.05943 | 22.27645 | 36015 ft | 427 kts | 321° |
| 2026-04-19 23:18 | 43.10707 | 22.22780 | 36008 ft | 427 kts | 321° |
| 2026-04-19 23:19 | 43.15470 | 22.17902 | 35999 ft | 427 kts | 321° |
| 2026-04-19 23:19 | 43.20238 | 22.13037 | 36016 ft | 427 kts | 321° |
| 2026-04-19 23:20 | 43.24997 | 22.08158 | 36010 ft | 427 kts | 321° |
| 2026-04-19 23:20 | 43.29750 | 22.03257 | 36012 ft | 427 kts | 321° |
| 2026-04-19 23:21 | 43.34501 | 21.98359 | 36013 ft | 427 kts | 321° |
| 2026-04-19 23:21 | 43.39248 | 21.93451 | 36011 ft | 427 kts | 321° |
| 2026-04-19 23:22 | 43.43988 | 21.88540 | 36024 ft | 427 kts | 320° |
| 2026-04-19 23:22 | 43.48727 | 21.83620 | 36017 ft | 427 kts | 320° |
| 2026-04-19 23:23 | 43.53463 | 21.78696 | 36011 ft | 426 kts | 320° |
| 2026-04-19 23:23 | 43.58185 | 21.73760 | 36004 ft | 426 kts | 320° |
| 2026-04-19 23:24 | 43.62914 | 21.68828 | 35996 ft | 426 kts | 320° |
| 2026-04-19 23:24 | 43.67637 | 21.63885 | 35995 ft | 426 kts | 320° |
| 2026-04-19 23:25 | 43.72290 | 21.58848 | 36013 ft | 424 kts | 319° |
| 2026-04-19 23:25 | 43.76822 | 21.53640 | 36006 ft | 423 kts | 317° |
| 2026-04-19 23:26 | 43.81332 | 21.48414 | 36006 ft | 423 kts | 318° |
| 2026-04-19 23:26 | 43.85836 | 21.43263 | 36003 ft | 422 kts | 318° |
| 2026-04-19 23:27 | 43.90372 | 21.38094 | 36002 ft | 422 kts | 318° |
| 2026-04-19 23:27 | 43.94898 | 21.32923 | 36009 ft | 421 kts | 318° |
| 2026-04-19 23:28 | 43.99421 | 21.27742 | 36004 ft | 421 kts | 318° |
| 2026-04-19 23:28 | 44.03930 | 21.22550 | 36001 ft | 421 kts | 318° |
| 2026-04-19 23:29 | 44.08441 | 21.17356 | 35992 ft | 421 kts | 318° |
| 2026-04-19 23:29 | 44.12950 | 21.12153 | 35999 ft | 421 kts | 318° |
| 2026-04-19 23:30 | 44.17456 | 21.06942 | 35997 ft | 421 kts | 318° |
| 2026-04-19 23:30 | 44.21951 | 21.01724 | 36006 ft | 421 kts | 318° |
| 2026-04-19 23:31 | 44.26447 | 20.96499 | 36002 ft | 421 kts | 318° |
| 2026-04-19 23:31 | 44.30944 | 20.91266 | 35995 ft | 421 kts | 317° |
| 2026-04-19 23:32 | 44.35439 | 20.86020 | 35994 ft | 421 kts | 317° |
| 2026-04-19 23:32 | 44.39908 | 20.80811 | 35994 ft | 421 kts | 317° |
| 2026-04-19 23:33 | 44.44403 | 20.75550 | 35994 ft | 421 kts | 317° |
| 2026-04-19 23:33 | 44.48887 | 20.70277 | 36007 ft | 421 kts | 317° |
| 2026-04-19 23:34 | 44.53372 | 20.64999 | 35999 ft | 421 kts | 317° |
| 2026-04-19 23:34 | 44.57857 | 20.59718 | 35998 ft | 421 kts | 317° |
| 2026-04-19 23:35 | 44.62338 | 20.54425 | 35995 ft | 421 kts | 317° |
| 2026-04-19 23:35 | 44.66818 | 20.49122 | 35997 ft | 421 kts | 317° |
| 2026-04-19 23:36 | 44.71294 | 20.43809 | 36014 ft | 421 kts | 317° |
| 2026-04-19 23:36 | 44.75772 | 20.38484 | 36011 ft | 421 kts | 317° |
| 2026-04-19 23:37 | 44.80249 | 20.33155 | 36026 ft | 421 kts | 317° |
| 2026-04-19 23:37 | 44.85179 | 20.28640 | 36007 ft | 425 kts | 328° |
| 2026-04-19 23:38 | 44.90396 | 20.24693 | 36010 ft | 426 kts | 328° |
| 2026-04-19 23:38 | 44.95616 | 20.20738 | 36007 ft | 426 kts | 329° |
| 2026-04-19 23:39 | 45.00831 | 20.16758 | 35996 ft | 426 kts | 328° |
| 2026-04-19 23:39 | 45.06047 | 20.12768 | 35994 ft | 426 kts | 328° |
| 2026-04-19 23:40 | 45.11261 | 20.08765 | 35990 ft | 426 kts | 328° |
| 2026-04-19 23:40 | 45.15598 | 20.05433 | 35996 ft | 427 kts | 328° |
| 2026-04-19 23:41 | 45.20808 | 20.01412 | 36013 ft | 426 kts | 328° |
| 2026-04-19 23:41 | 45.26018 | 19.97388 | 36008 ft | 426 kts | 328° |
| 2026-04-19 23:42 | 45.31228 | 19.93365 | 36004 ft | 426 kts | 328° |
| 2026-04-19 23:42 | 45.36431 | 19.89336 | 36004 ft | 426 kts | 328° |
| 2026-04-19 23:43 | 45.41629 | 19.85305 | 35999 ft | 426 kts | 328° |
| 2026-04-19 23:43 | 45.46825 | 19.81263 | 36011 ft | 425 kts | 328° |
| 2026-04-19 23:44 | 45.52015 | 19.77213 | 35999 ft | 425 kts | 328° |
| 2026-04-19 23:44 | 45.57204 | 19.73159 | 35999 ft | 425 kts | 328° |
| 2026-04-19 23:45 | 45.62389 | 19.69100 | 35996 ft | 425 kts | 328° |
| 2026-04-19 23:45 | 45.67571 | 19.65033 | 36015 ft | 425 kts | 328° |
| 2026-04-19 23:46 | 45.72753 | 19.60958 | 36005 ft | 425 kts | 328° |
| 2026-04-19 23:46 | 45.77895 | 19.56910 | 35998 ft | 425 kts | 328° |
| 2026-04-19 23:47 | 45.83068 | 19.52822 | 36002 ft | 424 kts | 328° |
| 2026-04-19 23:47 | 45.88236 | 19.48723 | 35999 ft | 424 kts | 328° |
| 2026-04-19 23:48 | 45.93400 | 19.44619 | 36008 ft | 424 kts | 328° |
| 2026-04-19 23:48 | 45.98569 | 19.40519 | 36003 ft | 424 kts | 328° |
| 2026-04-19 23:49 | 46.03733 | 19.36392 | 36000 ft | 424 kts | 326° |
| 2026-04-19 23:49 | 46.08367 | 19.31236 | 35994 ft | 421 kts | 317° |
| 2026-04-19 23:50 | 46.12856 | 19.25810 | 36003 ft | 422 kts | 318° |
| 2026-04-19 23:50 | 46.17358 | 19.20386 | 36014 ft | 422 kts | 318° |
| 2026-04-19 23:51 | 46.21862 | 19.14957 | 36012 ft | 422 kts | 317° |
| 2026-04-19 23:51 | 46.26351 | 19.09509 | 36004 ft | 421 kts | 317° |
| 2026-04-19 23:52 | 46.30834 | 19.04048 | 36004 ft | 421 kts | 317° |
| 2026-04-19 23:52 | 46.35321 | 18.98583 | 36003 ft | 421 kts | 317° |
| 2026-04-19 23:53 | 46.39806 | 18.93117 | 36010 ft | 421 kts | 317° |
| 2026-04-19 23:53 | 46.44285 | 18.87641 | 36022 ft | 421 kts | 317° |
| 2026-04-19 23:54 | 46.48763 | 18.82149 | 36018 ft | 421 kts | 317° |
| 2026-04-19 23:54 | 46.53235 | 18.76648 | 36018 ft | 421 kts | 317° |
| 2026-04-19 23:55 | 46.57376 | 18.71558 | 36002 ft | 401 kts | 317° |
| 2026-04-19 23:55 | 46.61627 | 18.66309 | 35998 ft | 408 kts | 317° |
| 2026-04-19 23:56 | 46.65995 | 18.60889 | 36004 ft | 417 kts | 317° |
| 2026-04-19 23:56 | 46.70447 | 18.55373 | 36025 ft | 424 kts | 317° |
| 2026-04-19 23:57 | 46.74970 | 18.49768 | 36004 ft | 429 kts | 317° |
| 2026-04-19 23:57 | 46.79531 | 18.44091 | 36002 ft | 432 kts | 317° |
| 2026-04-19 23:58 | 46.84019 | 18.38488 | 36002 ft | 421 kts | 317° |
| 2026-04-19 23:58 | 46.88456 | 18.32937 | 36002 ft | 419 kts | 317° |
| 2026-04-19 23:59 | 46.92881 | 18.27387 | 36001 ft | 419 kts | 316° |
| 2026-04-19 23:59 | 46.97300 | 18.21830 | 36024 ft | 419 kts | 316° |
| 2026-04-20 00:00 | 47.01719 | 18.16265 | 36014 ft | 419 kts | 316° |
| 2026-04-20 00:00 | 47.06131 | 18.10696 | 36007 ft | 418 kts | 316° |
| 2026-04-20 00:01 | 47.10536 | 18.05117 | 36011 ft | 418 kts | 316° |
| 2026-04-20 00:02 | 47.17150 | 17.96733 | 36008 ft | 419 kts | 316° |
| 2026-04-20 00:02 | 47.21558 | 17.91131 | 36008 ft | 419 kts | 316° |
| 2026-04-20 00:03 | 47.25962 | 17.85513 | 36019 ft | 419 kts | 316° |
| 2026-04-20 00:03 | 47.30369 | 17.79864 | 36027 ft | 420 kts | 316° |
| 2026-04-20 00:04 | 47.34780 | 17.74204 | 36029 ft | 421 kts | 316° |
| 2026-04-20 00:04 | 47.39170 | 17.68572 | 36037 ft | 421 kts | 315° |
| 2026-04-20 00:05 | 47.43590 | 17.62890 | 36036 ft | 421 kts | 315° |
| 2026-04-20 00:05 | 47.48012 | 17.57197 | 36036 ft | 422 kts | 315° |
| 2026-04-20 00:06 | 47.52432 | 17.51494 | 36036 ft | 422 kts | 315° |
| 2026-04-20 00:06 | 47.56847 | 17.45776 | 36036 ft | 422 kts | 315° |
| 2026-04-20 00:07 | 47.61254 | 17.40041 | 36051 ft | 422 kts | 315° |
| 2026-04-20 00:07 | 47.65666 | 17.34292 | 36042 ft | 422 kts | 315° |
| 2026-04-20 00:08 | 47.70083 | 17.28530 | 36035 ft | 423 kts | 315° |
| 2026-04-20 00:08 | 47.74495 | 17.22756 | 36043 ft | 423 kts | 315° |
| 2026-04-20 00:09 | 47.78907 | 17.16972 | 36065 ft | 423 kts | 315° |
| 2026-04-20 00:09 | 47.83371 | 17.11258 | 36064 ft | 425 kts | 321° |
| 2026-04-20 00:10 | 47.88355 | 17.06444 | 36060 ft | 428 kts | 323° |
| 2026-04-20 00:10 | 47.93381 | 17.01685 | 36059 ft | 428 kts | 323° |
| 2026-04-20 00:11 | 47.98410 | 16.96913 | 36059 ft | 428 kts | 323° |
| 2026-04-20 00:11 | 48.03433 | 16.92122 | 36058 ft | 428 kts | 323° |
| 2026-04-20 00:12 | 48.08454 | 16.87310 | 36094 ft | 429 kts | 323° |
| 2026-04-20 00:12 | 48.13469 | 16.82488 | 36092 ft | 429 kts | 323° |
| 2026-04-20 00:13 | 48.18484 | 16.77657 | 36089 ft | 429 kts | 323° |
| 2026-04-20 00:13 | 48.23495 | 16.72817 | 36088 ft | 428 kts | 323° |
| 2026-04-20 00:14 | 48.28500 | 16.67953 | 36089 ft | 429 kts | 323° |
| 2026-04-20 00:14 | 48.33511 | 16.63096 | 36102 ft | 429 kts | 323° |
| 2026-04-20 00:15 | 48.38489 | 16.58264 | 36088 ft | 429 kts | 323° |
| 2026-04-20 00:15 | 48.43498 | 16.53388 | 36079 ft | 429 kts | 323° |
| 2026-04-20 00:16 | 48.48505 | 16.48501 | 36084 ft | 429 kts | 323° |
| 2026-04-20 00:16 | 48.53515 | 16.43616 | 36074 ft | 429 kts | 323° |
| 2026-04-20 00:16 | 48.56020 | 16.41171 | 35815 ft | 428 kts | 323° |
| 2026-04-20 00:17 | 48.58514 | 16.38730 | 35602 ft | 427 kts | 322° |
| 2026-04-20 00:17 | 48.61004 | 16.36289 | 35354 ft | 426 kts | 322° |
| 2026-04-20 00:17 | 48.63490 | 16.33851 | 35121 ft | 426 kts | 322° |
| 2026-04-20 00:17 | 48.65971 | 16.31413 | 34880 ft | 425 kts | 322° |
| 2026-04-20 00:18 | 48.68448 | 16.28972 | 34649 ft | 425 kts | 322° |
| 2026-04-20 00:18 | 48.70922 | 16.26528 | 34413 ft | 425 kts | 322° |
| 2026-04-20 00:18 | 48.73395 | 16.24078 | 34181 ft | 425 kts | 322° |
| 2026-04-20 00:18 | 48.75869 | 16.21627 | 33926 ft | 425 kts | 322° |
| 2026-04-20 00:19 | 48.78306 | 16.19111 | 33645 ft | 424 kts | 319° |
| 2026-04-20 00:19 | 48.80666 | 16.16444 | 33370 ft | 423 kts | 317° |
| 2026-04-20 00:19 | 48.82977 | 16.13667 | 33096 ft | 424 kts | 316° |
| 2026-04-20 00:19 | 48.85266 | 16.10839 | 32845 ft | 425 kts | 316° |
| 2026-04-20 00:20 | 48.87558 | 16.07993 | 32577 ft | 426 kts | 316° |
| 2026-04-20 00:20 | 48.89866 | 16.05152 | 32308 ft | 428 kts | 316° |
| 2026-04-20 00:20 | 48.92194 | 16.02323 | 32051 ft | 429 kts | 316° |
| 2026-04-20 00:20 | 48.94540 | 15.99500 | 31812 ft | 431 kts | 317° |
| 2026-04-20 00:21 | 48.96895 | 15.96685 | 31550 ft | 431 kts | 317° |
| 2026-04-20 00:21 | 48.99257 | 15.93867 | 31294 ft | 432 kts | 317° |
| 2026-04-20 00:21 | 49.01622 | 15.91045 | 31050 ft | 433 kts | 316° |
| 2026-04-20 00:21 | 49.03991 | 15.88209 | 30599 ft | 433 kts | 316° |
| 2026-04-20 00:22 | 49.06373 | 15.85342 | 29364 ft | 440 kts | 316° |
| 2026-04-20 00:22 | 49.08757 | 15.82463 | 28761 ft | 432 kts | 316° |
| 2026-04-20 00:22 | 49.11097 | 15.79635 | 28100 ft | 426 kts | 316° |
| 2026-04-20 00:22 | 49.13410 | 15.76837 | 27416 ft | 422 kts | 316° |
| 2026-04-20 00:23 | 49.15697 | 15.74069 | 26776 ft | 418 kts | 316° |
| 2026-04-20 00:23 | 49.17962 | 15.71324 | 26135 ft | 414 kts | 316° |
| 2026-04-20 00:23 | 49.20205 | 15.68599 | 25502 ft | 411 kts | 316° |
| 2026-04-20 00:23 | 49.22435 | 15.65886 | 24876 ft | 408 kts | 316° |
| 2026-04-20 00:24 | 49.24645 | 15.63187 | 24243 ft | 405 kts | 316° |
| 2026-04-20 00:24 | 49.26840 | 15.60504 | 23619 ft | 403 kts | 317° |
| 2026-04-20 00:24 | 49.29026 | 15.57836 | 22940 ft | 400 kts | 317° |
| 2026-04-20 00:24 | 49.31193 | 15.55198 | 22370 ft | 395 kts | 317° |
| 2026-04-20 00:25 | 49.33329 | 15.52589 | 21813 ft | 390 kts | 317° |
| 2026-04-20 00:25 | 49.35438 | 15.50005 | 21289 ft | 386 kts | 317° |
| 2026-04-20 00:25 | 49.37525 | 15.47449 | 20770 ft | 382 kts | 317° |
| 2026-04-20 00:25 | 49.39588 | 15.44920 | 20283 ft | 378 kts | 317° |
| 2026-04-20 00:26 | 49.41602 | 15.42447 | 19797 ft | 374 kts | 317° |
| 2026-04-20 00:26 | 49.43619 | 15.39965 | 19325 ft | 370 kts | 317° |
| 2026-04-20 00:26 | 49.45618 | 15.37503 | 18853 ft | 367 kts | 317° |
| 2026-04-20 00:26 | 49.47600 | 15.35060 | 18365 ft | 364 kts | 317° |
| 2026-04-20 00:27 | 49.49562 | 15.32636 | 17830 ft | 360 kts | 317° |
| 2026-04-20 00:27 | 49.51503 | 15.30234 | 17334 ft | 356 kts | 317° |
| 2026-04-20 00:27 | 49.53421 | 15.27858 | 16843 ft | 352 kts | 317° |
| 2026-04-20 00:27 | 49.55319 | 15.25507 | 16342 ft | 349 kts | 317° |
| 2026-04-20 00:28 | 49.57200 | 15.23175 | 15848 ft | 346 kts | 317° |
| 2026-04-20 00:28 | 49.59067 | 15.20856 | 15332 ft | 343 kts | 317° |
| 2026-04-20 00:28 | 49.60919 | 15.18555 | 14833 ft | 341 kts | 317° |
| 2026-04-20 00:28 | 49.62759 | 15.16270 | 14321 ft | 339 kts | 317° |
| 2026-04-20 00:29 | 49.64588 | 15.13996 | 13811 ft | 337 kts | 318° |
| 2026-04-20 00:29 | 49.66406 | 15.11733 | 13273 ft | 334 kts | 318° |
| 2026-04-20 00:29 | 49.67602 | 15.10244 | 12921 ft | 333 kts | 318° |
| 2026-04-20 00:29 | 49.69392 | 15.08009 | 12396 ft | 329 kts | 317° |
| 2026-04-20 00:30 | 49.71011 | 15.05559 | 11879 ft | 323 kts | 307° |
| 2026-04-20 00:30 | 49.72380 | 15.02832 | 11363 ft | 320 kts | 306° |
| 2026-04-20 00:30 | 49.73735 | 15.00124 | 10852 ft | 317 kts | 306° |
| 2026-04-20 00:30 | 49.75063 | 14.97470 | 10624 ft | 305 kts | 306° |
| 2026-04-20 00:31 | 49.76336 | 14.94923 | 10492 ft | 292 kts | 306° |
| 2026-04-20 00:31 | 49.77553 | 14.92487 | 10369 ft | 281 kts | 306° |
| 2026-04-20 00:31 | 49.78724 | 14.90148 | 10236 ft | 269 kts | 306° |
| 2026-04-20 00:31 | 49.79853 | 14.87891 | 10029 ft | 263 kts | 306° |
| 2026-04-20 00:32 | 49.80955 | 14.85670 | 9862 ft | 259 kts | 306° |
| 2026-04-20 00:32 | 49.82044 | 14.83459 | 9721 ft | 258 kts | 306° |
| 2026-04-20 00:32 | 49.83132 | 14.81243 | 9429 ft | 260 kts | 306° |
| 2026-04-20 00:32 | 49.84228 | 14.79009 | 9020 ft | 259 kts | 306° |
| 2026-04-20 00:33 | 49.85319 | 14.76787 | 8537 ft | 260 kts | 306° |
| 2026-04-20 00:33 | 49.86402 | 14.74585 | 8201 ft | 253 kts | 306° |
| 2026-04-20 00:33 | 49.87464 | 14.72423 | 7531 ft | 251 kts | 306° |
| 2026-04-20 00:33 | 49.88518 | 14.70278 | 6969 ft | 251 kts | 307° |
| 2026-04-20 00:34 | 49.89566 | 14.68145 | 6577 ft | 248 kts | 307° |
| 2026-04-20 00:34 | 49.90610 | 14.66002 | 6137 ft | 248 kts | 306° |
| 2026-04-20 00:34 | 49.91644 | 14.63879 | 5713 ft | 245 kts | 307° |
| 2026-04-20 00:34 | 49.92653 | 14.61819 | 5355 ft | 231 kts | 307° |
| 2026-04-20 00:35 | 49.93585 | 14.59918 | 5215 ft | 214 kts | 307° |
| 2026-04-20 00:35 | 49.94464 | 14.58124 | 5120 ft | 204 kts | 307° |
| 2026-04-20 00:35 | 49.95299 | 14.56418 | 5030 ft | 193 kts | 307° |
| 2026-04-20 00:35 | 49.96090 | 14.54800 | 4963 ft | 184 kts | 307° |
| 2026-04-20 00:36 | 49.96839 | 14.53269 | 4901 ft | 171 kts | 307° |
| 2026-04-20 00:36 | 49.97538 | 14.51837 | 4796 ft | 163 kts | 307° |
| 2026-04-20 00:36 | 49.98220 | 14.50440 | 4727 ft | 162 kts | 307° |
| 2026-04-20 00:36 | 49.98901 | 14.49045 | 4615 ft | 162 kts | 307° |
| 2026-04-20 00:37 | 49.99582 | 14.47650 | 4425 ft | 162 kts | 307° |
| 2026-04-20 00:37 | 50.00262 | 14.46253 | 4226 ft | 162 kts | 306° |
| 2026-04-20 00:37 | 50.00943 | 14.44857 | 4007 ft | 162 kts | 306° |
| 2026-04-20 00:37 | 50.01623 | 14.43459 | 3782 ft | 162 kts | 306° |
| 2026-04-20 00:38 | 50.02303 | 14.42063 | 3564 ft | 161 kts | 306° |
| 2026-04-20 00:38 | 50.02972 | 14.40689 | 3342 ft | 161 kts | 306° |
| 2026-04-20 00:38 | 50.03648 | 14.39299 | 3141 ft | 162 kts | 306° |
| 2026-04-20 00:38 | 50.04322 | 14.37912 | 2888 ft | 156 kts | 305° |
| 2026-04-20 00:39 | 50.04939 | 14.36643 | 2709 ft | 142 kts | 305° |
| 2026-04-20 00:39 | 50.05526 | 14.35438 | 2500 ft | 138 kts | 304° |
| 2026-04-20 00:39 | 50.06102 | 14.34259 | 2320 ft | 136 kts | 304° |
| 2026-04-20 00:39 | 50.06673 | 14.33088 | 2100 ft | 136 kts | 304° |
| 2026-04-20 00:40 | 50.07253 | 14.31930 | 1890 ft | 135 kts | 304° |
| 2026-04-20 00:40 | 50.07812 | 14.30750 | 1722 ft | 136 kts | 302° |
| 2026-04-20 00:40 | 50.08387 | 14.29558 | 1486 ft | 139 kts | 302° |
| 2026-04-20 00:40 | 50.08968 | 14.28336 | 1321 ft | 142 kts | 302° |
| 2026-04-20 00:41 | 50.09545 | 14.27157 | 1215 ft | 114 kts | 308° |
| 2026-04-20 00:41 | 50.09723 | 14.26785 | 1217 ft | 0 kts | 275° |
| 2026-04-20 00:41 | 50.09723 | 14.26780 | 1216 ft | 6 kts | 279° |
| 2026-04-20 00:41 | 50.09826 | 14.26554 | 1213 ft | 42 kts | 306° |
| 2026-04-20 00:42 | 50.10049 | 14.26089 | 1193 ft | 55 kts | 307° |
| 2026-04-20 00:42 | 50.10215 | 14.25762 | 1188 ft | 30 kts | 317° |
| 2026-04-20 00:42 | 50.10412 | 14.25659 | 1186 ft | 31 kts | 4° |
| 2026-04-20 00:42 | 50.10494 | 14.25817 | 1185 ft | 18 kts | 79° |
| 2026-04-20 00:43 | 50.10549 | 14.25992 | 1175 ft | 20 kts | 38° |
| 2026-04-20 00:43 | 50.10665 | 14.26106 | 1176 ft | 13 kts | 32° |
| 2026-04-20 00:43 | 50.10727 | 14.26172 | 1172 ft | 10 kts | 34° |
| 2026-04-20 00:43 | 50.10780 | 14.26228 | 1177 ft | 8 kts | 34° |
| 2026-04-20 00:44 | 50.10813 | 14.26319 | 1177 ft | 11 kts | 105° |
| 2026-04-20 00:44 | 50.10774 | 14.26411 | 1174 ft | 7 kts | 125° |
| 2026-04-20 00:44 | 50.10771 | 14.26469 | 1177 ft | 5 kts | 51° |
| 2026-04-20 00:44 | 50.10804 | 14.26506 | 1176 ft | 6 kts | 34° |
| 2026-04-20 00:45 | 50.10812 | 14.26514 | 1175 ft | 2 kts | 34° |
| 2026-04-20 00:45 | 50.10818 | 14.26520 | 1175 ft | 0 kts | 34° |
| 2026-04-20 00:45 | 50.10822 | 14.26524 | 1173 ft | 0 kts | 34° |
| 2026-04-20 00:45 | 50.10822 | 14.26525 | 1173 ft | 0 kts | 34° |